createdAt,value
2019-03-23T00:01:56.183Z,12.57
2019-03-23T00:04:25.482Z,12.40
2019-03-23T00:06:54.035Z,15.90
2019-03-23T00:09:22.474Z,13.93
2019-03-23T00:11:50.907Z,12.20
2019-03-23T00:14:19.372Z,13.63
2019-03-23T00:16:47.880Z,13.40
2019-03-23T00:19:16.314Z,13.83
2019-03-23T00:21:44.818Z,11.83
2019-03-23T00:24:13.251Z,13.17
2019-03-23T00:26:41.707Z,12.00
2019-03-23T00:29:10.174Z,13.43
2019-03-23T00:31:38.682Z,14.17
2019-03-23T00:34:07.111Z,13.47
2019-03-23T00:36:41.297Z,12.70
2019-03-23T00:39:06.679Z,13.57
2019-03-23T00:41:35.414Z,13.90
2019-03-23T00:44:03.931Z,13.77
2019-03-23T00:46:32.366Z,14.73
2019-03-23T00:49:00.803Z,12.73
2019-03-23T00:51:29.274Z,12.30
2019-03-23T00:53:57.713Z,15.97
2019-03-23T00:56:26.156Z,12.93
2019-03-23T00:58:54.760Z,13.20
2019-03-23T01:01:23.215Z,16.93
2019-03-23T01:03:51.646Z,12.90
2019-03-23T01:06:20.102Z,12.93
2019-03-23T01:08:48.551Z,13.27
2019-03-23T01:11:16.984Z,15.27
2019-03-23T01:13:45.421Z,16.07
2019-03-23T01:16:13.860Z,14.90
2019-03-23T01:18:42.308Z,12.90
2019-03-23T01:21:10.758Z,11.70
2019-03-23T01:23:39.192Z,12.57
2019-03-23T01:26:07.671Z,11.67
2019-03-23T01:28:36.177Z,13.07
2019-03-23T01:31:04.615Z,12.17
2019-03-23T01:33:33.042Z,12.17
2019-03-23T01:36:01.513Z,12.17
2019-03-23T01:38:30.208Z,15.47
2019-03-23T01:40:58.677Z,12.07
2019-03-23T01:43:27.109Z,11.87
2019-03-23T01:45:55.560Z,12.50
2019-03-23T01:48:24.050Z,13.00
2019-03-23T01:50:52.503Z,11.07
2019-03-23T01:53:20.945Z,11.90
2019-03-23T01:55:49.376Z,10.53
2019-03-23T01:58:17.813Z,10.60
2019-03-23T02:00:46.280Z,10.93
2019-03-23T02:03:14.720Z,12.33
2019-03-23T02:05:43.163Z,13.00
2019-03-23T02:08:11.592Z,10.97
2019-03-23T02:10:41.868Z,11.47
2019-03-23T02:13:10.206Z,11.60
2019-03-23T02:15:38.636Z,10.90
2019-03-23T02:18:07.075Z,11.27
2019-03-23T02:20:35.501Z,11.80
2019-03-23T02:23:03.960Z,11.60
2019-03-23T02:25:32.391Z,10.50
2019-03-23T02:28:01.096Z,12.67
2019-03-23T02:30:29.657Z,13.40
2019-03-23T02:32:58.120Z,10.37
2019-03-23T02:35:26.552Z,12.50
2019-03-23T02:37:55.007Z,11.13
2019-03-23T02:40:23.461Z,12.30
2019-03-23T02:42:51.931Z,11.60
2019-03-23T02:45:20.439Z,10.83
2019-03-23T02:47:48.860Z,11.03
2019-03-23T02:50:17.307Z,11.60
2019-03-23T02:52:45.756Z,13.00
2019-03-23T02:55:14.189Z,11.03
2019-03-23T02:57:42.632Z,10.70
2019-03-23T03:00:13.312Z,13.93
2019-03-23T03:02:41.770Z,11.23
2019-03-23T03:05:10.295Z,10.73
2019-03-23T03:07:42.680Z,11.20
2019-03-23T03:10:11.239Z,12.13
2019-03-23T03:12:39.772Z,10.80
2019-03-23T03:15:09.234Z,10.70
2019-03-23T03:17:37.669Z,10.40
2019-03-23T03:20:07.553Z,10.53
2019-03-23T03:22:36.448Z,11.20
2019-03-23T03:25:06.724Z,11.50
2019-03-23T03:27:35.170Z,12.07
2019-03-23T03:30:05.364Z,11.33
2019-03-23T03:32:33.802Z,10.80
2019-03-23T03:35:02.246Z,11.00
2019-03-23T03:37:30.705Z,10.40
2019-03-23T03:39:59.136Z,10.57
2019-03-23T03:42:28.146Z,11.53
2019-03-23T03:44:56.587Z,11.07
2019-03-23T03:47:25.100Z,11.43
2019-03-23T03:49:53.523Z,10.27
2019-03-23T03:52:21.976Z,10.13
2019-03-23T03:54:50.408Z,10.70
2019-03-23T03:57:18.853Z,10.43
2019-03-23T03:59:47.288Z,10.30
2019-03-23T04:02:15.759Z,11.10
2019-03-23T04:04:47.290Z,10.97
2019-03-23T04:07:15.749Z,10.57
2019-03-23T04:09:44.183Z,10.43
2019-03-23T04:12:12.639Z,11.70
2019-03-23T04:14:41.095Z,14.13
2019-03-23T04:17:09.787Z,11.60
2019-03-23T04:19:38.229Z,10.93
2019-03-23T04:22:06.666Z,11.03
2019-03-23T04:24:35.115Z,11.70
2019-03-23T04:27:04.981Z,11.70
2019-03-23T04:29:33.939Z,12.67
2019-03-23T04:32:02.373Z,11.10
2019-03-23T04:34:30.806Z,10.70
2019-03-23T04:36:59.257Z,11.13
2019-03-23T04:39:27.705Z,11.00
2019-03-23T04:41:56.159Z,11.90
2019-03-23T04:44:24.606Z,10.67
2019-03-23T04:46:53.036Z,12.03
2019-03-23T04:49:21.474Z,12.10
2019-03-23T04:51:49.892Z,11.00
2019-03-23T04:54:18.333Z,10.60
2019-03-23T04:56:46.794Z,11.67
2019-03-23T04:59:15.245Z,11.47
2019-03-23T05:01:43.686Z,11.17
2019-03-23T05:04:12.163Z,12.63
2019-03-23T05:06:42.542Z,12.90
2019-03-23T05:09:10.810Z,12.67
2019-03-23T05:11:39.253Z,10.17
2019-03-23T05:14:07.754Z,11.87
2019-03-23T05:16:36.188Z,10.27
2019-03-23T05:19:04.661Z,11.97
2019-03-23T05:21:33.076Z,11.77
2019-03-23T05:24:01.535Z,12.20
2019-03-23T05:26:29.964Z,11.77
2019-03-23T05:28:58.400Z,11.37
2019-03-23T05:31:26.857Z,11.93
2019-03-23T05:33:55.375Z,11.20
2019-03-23T05:36:23.817Z,11.33
2019-03-23T05:38:52.277Z,11.10
2019-03-23T05:41:20.687Z,13.13
2019-03-23T05:43:49.147Z,13.80
2019-03-23T05:46:17.590Z,12.57
2019-03-23T05:48:46.030Z,12.83
2019-03-23T05:51:14.460Z,13.30
2019-03-23T05:53:42.885Z,12.27
2019-03-23T05:56:11.414Z,12.00
2019-03-23T05:58:39.857Z,12.00
2019-03-23T06:01:08.311Z,13.23
2019-03-23T06:03:36.755Z,11.73
2019-03-23T06:06:05.193Z,14.13
2019-03-23T06:08:33.658Z,13.30
2019-03-23T06:11:02.068Z,13.47
2019-03-23T06:13:30.526Z,17.30
2019-03-23T06:15:58.985Z,14.77
2019-03-23T06:18:27.412Z,12.23
2019-03-23T06:20:55.866Z,13.47
2019-03-23T06:23:24.313Z,14.10
2019-03-23T06:25:52.767Z,12.57
2019-03-23T06:28:21.176Z,11.97
2019-03-23T06:30:49.622Z,12.60
2019-03-23T06:33:18.075Z,12.17
2019-03-23T06:35:46.515Z,11.63
2019-03-23T06:38:16.372Z,13.53
2019-03-23T06:40:45.059Z,14.23
2019-03-23T06:43:13.551Z,12.10
2019-03-23T06:45:41.994Z,36.73
2019-03-23T06:48:10.424Z,80.90
2019-03-23T06:50:38.881Z,51.37
2019-03-23T06:53:07.283Z,19.50
2019-03-23T06:55:35.719Z,12.20
2019-03-23T06:58:04.210Z,11.40
2019-03-23T07:00:32.665Z,11.23
2019-03-23T07:03:01.114Z,11.37
2019-03-23T07:05:29.710Z,12.50
2019-03-23T07:07:58.200Z,12.87
2019-03-23T07:10:26.661Z,11.37
2019-03-23T07:12:55.097Z,15.50
2019-03-23T07:15:23.549Z,12.00
2019-03-23T07:17:51.979Z,13.00
2019-03-23T07:20:20.421Z,11.60
2019-03-23T07:22:48.866Z,11.47
2019-03-23T07:25:17.384Z,10.90
2019-03-23T07:27:45.820Z,12.00
2019-03-23T07:30:17.377Z,11.53
2019-03-23T07:32:46.157Z,11.90
2019-03-23T07:35:15.099Z,11.70
2019-03-23T07:37:43.687Z,14.03
2019-03-23T07:40:12.788Z,12.03
2019-03-23T07:42:41.292Z,14.93
2019-03-23T07:45:14.614Z,11.10
2019-03-23T07:47:42.876Z,14.30
2019-03-23T07:50:12.971Z,12.67
2019-03-23T07:52:41.526Z,12.63
2019-03-23T07:55:14.970Z,13.97
2019-03-23T07:57:43.759Z,12.47
2019-03-23T08:00:19.938Z,13.57
2019-03-23T08:02:48.444Z,13.40
2019-03-23T08:05:16.891Z,12.97
2019-03-23T08:07:45.536Z,13.70
2019-03-23T08:10:28.818Z,19.77
2019-03-23T08:12:57.255Z,14.50
2019-03-23T08:15:37.344Z,15.80
2019-03-23T08:18:05.771Z,16.03
2019-03-23T08:20:34.209Z,16.77
2019-03-23T08:23:02.673Z,15.13
2019-03-23T08:25:31.107Z,13.27
2019-03-23T08:27:59.592Z,14.87
2019-03-23T08:30:28.029Z,13.80
2019-03-23T08:32:56.459Z,13.30
2019-03-23T08:35:24.895Z,15.33
2019-03-23T08:37:53.334Z,16.90
2019-03-23T08:40:21.768Z,13.00
2019-03-23T08:42:50.206Z,15.20
2019-03-23T08:45:18.650Z,15.47
2019-03-23T08:47:47.088Z,14.73
2019-03-23T08:50:15.619Z,15.13
2019-03-23T08:52:44.037Z,15.00
2019-03-23T08:55:12.492Z,15.13
2019-03-23T08:57:41.532Z,17.00
2019-03-23T09:00:10.938Z,14.27
2019-03-23T09:02:39.378Z,16.10
2019-03-23T09:05:07.991Z,16.43
2019-03-23T09:07:42.309Z,14.30
2019-03-23T09:10:10.861Z,16.20
2019-03-23T09:12:40.858Z,16.13
2019-03-23T09:15:10.153Z,16.53
2019-03-23T09:17:38.593Z,16.87
2019-03-23T09:20:09.994Z,15.77
2019-03-23T09:22:38.674Z,17.97
2019-03-23T09:25:07.355Z,16.33
2019-03-23T09:27:35.856Z,16.77
2019-03-23T09:30:07.216Z,17.90
2019-03-23T09:32:35.895Z,19.90
2019-03-23T09:35:05.395Z,18.40
2019-03-23T09:37:33.838Z,20.33
2019-03-23T09:40:09.961Z,18.77
2019-03-23T09:42:32.408Z,21.37
2019-03-23T09:45:00.850Z,20.00
2019-03-23T09:47:29.293Z,21.43
2019-03-23T09:49:57.733Z,20.70
2019-03-23T09:52:26.170Z,19.90
2019-03-23T09:54:54.856Z,22.50
2019-03-23T09:57:23.299Z,17.67
2019-03-23T09:59:51.739Z,20.07
2019-03-23T10:02:20.174Z,17.83
2019-03-23T10:04:48.606Z,22.03
2019-03-23T10:07:17.043Z,19.13
2019-03-23T10:09:45.481Z,20.17
2019-03-23T10:12:13.935Z,19.83
2019-03-23T10:14:42.375Z,18.73
2019-03-23T10:17:10.814Z,19.37
2019-03-23T10:19:39.245Z,20.03
2019-03-23T10:22:07.680Z,21.70
2019-03-23T10:24:36.125Z,21.50
2019-03-23T10:27:04.645Z,23.03
2019-03-23T10:29:33.142Z,20.97
2019-03-23T10:32:01.586Z,24.53
2019-03-23T10:34:30.067Z,24.37
2019-03-23T10:36:58.499Z,21.37
2019-03-23T10:39:26.935Z,22.37
2019-03-23T10:41:55.370Z,22.43
2019-03-23T10:44:23.810Z,21.63
2019-03-23T10:46:52.259Z,21.33
2019-03-23T10:49:20.699Z,21.03
2019-03-23T10:51:49.148Z,20.73
2019-03-23T10:54:17.562Z,20.27
2019-03-23T10:56:46.002Z,20.97
2019-03-23T10:59:14.461Z,22.33
2019-03-23T11:01:42.886Z,23.30
2019-03-23T11:04:11.311Z,23.43
2019-03-23T11:06:39.753Z,20.33
2019-03-23T11:09:08.195Z,21.03
2019-03-23T11:11:36.648Z,22.63
2019-03-23T11:14:05.159Z,22.43
2019-03-23T11:16:33.615Z,25.20
2019-03-23T11:19:02.056Z,25.33
2019-03-23T11:21:30.497Z,23.67
2019-03-23T11:23:58.931Z,24.20
2019-03-23T11:26:28.194Z,27.35
2019-03-23T11:28:56.710Z,29.30
2019-03-23T11:31:25.143Z,23.20
2019-03-23T11:33:53.594Z,37.80
2019-03-23T11:36:22.065Z,28.67
2019-03-23T11:38:50.495Z,25.43
2019-03-23T11:41:18.913Z,23.98
2019-03-23T11:43:47.400Z,27.20
2019-03-23T11:46:17.030Z,26.12
2019-03-23T11:48:45.654Z,23.15
2019-03-23T11:51:14.092Z,28.15
2019-03-23T11:53:42.528Z,25.72
2019-03-23T11:56:10.953Z,28.02
2019-03-23T11:58:39.389Z,27.37
2019-03-23T12:01:07.831Z,27.35
2019-03-23T12:03:36.287Z,29.32
2019-03-23T12:06:04.792Z,25.37
2019-03-23T12:08:33.233Z,28.98
2019-03-23T12:11:03.062Z,27.87
2019-03-23T12:13:31.845Z,25.50
2019-03-23T12:16:00.339Z,25.25
2019-03-23T12:18:28.791Z,27.30
2019-03-23T12:20:57.230Z,26.37
2019-03-23T12:23:25.666Z,26.95
2019-03-23T12:25:54.113Z,26.42
2019-03-23T12:28:22.585Z,25.57
2019-03-23T12:30:51.010Z,27.10
2019-03-23T12:33:21.432Z,25.95
2019-03-23T12:35:49.653Z,26.30
2019-03-23T12:38:18.090Z,26.05
2019-03-23T12:40:46.532Z,29.42
2019-03-23T12:43:14.975Z,37.67
2019-03-23T12:45:43.410Z,29.75
2019-03-23T12:48:12.165Z,27.20
2019-03-23T12:50:40.619Z,32.08
2019-03-23T12:53:09.088Z,29.07
2019-03-23T12:55:37.526Z,32.60
2019-03-23T12:58:05.963Z,29.50
2019-03-23T13:00:34.404Z,28.90
2019-03-23T13:03:02.848Z,32.35
2019-03-23T13:05:31.296Z,30.32
2019-03-23T13:07:59.741Z,28.57
2019-03-23T13:10:28.174Z,31.37
2019-03-23T13:12:58.337Z,29.92
2019-03-23T13:15:26.946Z,32.15
2019-03-23T13:17:55.404Z,33.13
2019-03-23T13:20:23.919Z,28.95
2019-03-23T13:22:52.475Z,30.20
2019-03-23T13:25:20.908Z,31.68
2019-03-23T13:27:49.407Z,30.57
2019-03-23T13:30:18.187Z,31.75
2019-03-23T13:32:46.887Z,31.27
2019-03-23T13:35:15.311Z,33.40
2019-03-23T13:37:43.812Z,36.10
2019-03-23T13:40:13.798Z,33.50
2019-03-23T13:42:42.315Z,32.53
2019-03-23T13:45:11.291Z,31.05
2019-03-23T13:47:40.418Z,30.23
2019-03-23T13:50:10.690Z,31.85
2019-03-23T13:52:39.324Z,35.45
2019-03-23T13:55:07.900Z,32.30
2019-03-23T13:57:36.337Z,31.97
2019-03-23T14:00:08.643Z,31.52
2019-03-23T14:02:37.638Z,33.35
2019-03-23T14:05:12.260Z,33.75
2019-03-23T14:07:36.321Z,34.10
2019-03-23T14:10:06.315Z,32.20
2019-03-23T14:12:34.750Z,34.08
2019-03-23T14:15:03.260Z,35.58
2019-03-23T14:17:31.678Z,32.17
2019-03-23T14:20:00.249Z,36.30
2019-03-23T14:22:28.759Z,31.23
2019-03-23T14:24:57.201Z,35.50
2019-03-23T14:27:25.634Z,32.05
2019-03-23T14:29:54.129Z,29.15
2019-03-23T14:32:22.546Z,29.63
2019-03-23T14:34:50.995Z,34.50
2019-03-23T14:37:19.472Z,34.63
2019-03-23T14:39:47.949Z,33.65
2019-03-23T14:42:16.392Z,37.05
2019-03-23T14:44:44.841Z,35.63
2019-03-23T14:47:13.298Z,34.67
2019-03-23T14:49:41.743Z,33.15
2019-03-23T14:52:10.213Z,31.68
2019-03-23T14:54:38.690Z,48.35
2019-03-23T14:57:07.118Z,34.78
2019-03-23T14:59:35.572Z,31.60
2019-03-23T15:02:04.029Z,40.98
2019-03-23T15:04:32.950Z,31.07
2019-03-23T15:07:01.388Z,30.30
2019-03-23T15:09:29.841Z,30.60
2019-03-23T15:11:58.286Z,28.38
2019-03-23T15:14:26.754Z,28.45
2019-03-23T15:16:55.199Z,26.37
2019-03-23T15:19:23.921Z,27.70
2019-03-23T15:21:52.346Z,26.10
2019-03-23T15:24:20.790Z,26.73
2019-03-23T15:26:49.234Z,27.10
2019-03-23T15:29:17.681Z,25.80
2019-03-23T15:31:46.134Z,28.30
2019-03-23T15:34:14.567Z,30.52
2019-03-23T15:36:43.004Z,26.48
2019-03-23T15:39:11.456Z,28.67
2019-03-23T15:41:39.890Z,27.35
2019-03-23T15:44:08.385Z,25.10
2019-03-23T15:46:36.821Z,28.45
2019-03-23T15:49:05.286Z,30.05
2019-03-23T15:51:33.737Z,29.52
2019-03-23T15:54:02.182Z,29.12
2019-03-23T15:56:30.651Z,25.40
2019-03-23T15:58:59.098Z,26.25
2019-03-23T16:01:27.533Z,26.35
2019-03-23T16:03:55.978Z,25.68
2019-03-23T16:06:30.202Z,30.08
2019-03-23T16:08:58.634Z,26.60
2019-03-23T16:11:27.068Z,27.35
2019-03-23T16:13:55.505Z,27.37
2019-03-23T16:16:23.963Z,29.40
2019-03-23T16:18:52.409Z,28.65
2019-03-23T16:21:20.896Z,26.25
2019-03-23T16:23:49.343Z,28.35
2019-03-23T16:26:17.810Z,25.85
2019-03-23T16:28:46.256Z,22.67
2019-03-23T16:31:14.711Z,26.95
2019-03-23T16:33:43.153Z,31.10
2019-03-23T16:36:11.639Z,27.42
2019-03-23T16:38:40.065Z,27.67
2019-03-23T16:41:10.642Z,26.25
2019-03-23T16:43:39.092Z,30.97
2019-03-23T16:46:07.561Z,26.87
2019-03-23T16:48:36.005Z,33.25
2019-03-23T16:51:04.446Z,30.27
2019-03-23T16:53:33.130Z,30.40
2019-03-23T16:56:01.582Z,31.02
2019-03-23T16:58:30.014Z,28.55
2019-03-23T17:00:58.469Z,32.30
2019-03-23T17:03:26.895Z,25.55
2019-03-23T17:05:55.346Z,31.05
2019-03-23T17:08:23.804Z,29.57
2019-03-23T17:10:52.278Z,28.23
2019-03-23T17:13:20.751Z,26.87
2019-03-23T17:15:49.198Z,28.12
2019-03-23T17:18:17.647Z,24.90
2019-03-23T17:20:49.108Z,27.87
2019-03-23T17:23:17.546Z,30.92
2019-03-23T17:25:45.999Z,31.23
2019-03-23T17:28:14.497Z,31.73
2019-03-23T17:30:42.933Z,28.87
2019-03-23T17:33:11.381Z,32.03
2019-03-23T17:35:39.846Z,28.80
2019-03-23T17:38:08.263Z,32.20
2019-03-23T17:40:36.726Z,34.43
2019-03-23T17:43:06.308Z,30.25
2019-03-23T17:45:35.143Z,27.22
2019-03-23T17:48:03.642Z,30.72
2019-03-23T17:50:32.107Z,30.72
2019-03-23T17:53:00.581Z,31.35
2019-03-23T17:55:29.025Z,28.02
2019-03-23T17:57:57.470Z,28.12
2019-03-23T18:00:25.938Z,27.82
2019-03-23T18:02:54.385Z,38.25
2019-03-23T18:05:22.855Z,35.60
2019-03-23T18:07:51.392Z,34.33
2019-03-23T18:10:20.072Z,32.45
2019-03-23T18:12:48.538Z,37.80
2019-03-23T18:15:16.970Z,36.90
2019-03-23T18:17:45.435Z,33.98
2019-03-23T18:20:14.110Z,38.10
2019-03-23T18:22:42.553Z,38.38
2019-03-23T18:25:11.224Z,43.80
2019-03-23T18:27:39.735Z,38.83
2019-03-23T18:30:17.085Z,35.10
2019-03-23T18:32:45.546Z,38.28
2019-03-23T18:35:13.956Z,35.48
2019-03-23T18:37:42.499Z,40.58
2019-03-23T18:40:11.032Z,57.75
2019-03-23T18:42:39.474Z,54.30
2019-03-23T18:45:07.962Z,44.05
2019-03-23T18:47:36.411Z,51.15
2019-03-23T18:50:06.566Z,41.88
2019-03-23T18:52:35.008Z,41.02
2019-03-23T18:55:05.191Z,44.05
2019-03-23T18:57:33.635Z,44.55
2019-03-23T19:00:02.079Z,41.42
2019-03-23T19:02:33.755Z,40.75
2019-03-23T19:05:02.188Z,40.47
2019-03-23T19:07:30.611Z,38.50
2019-03-23T19:09:59.046Z,37.20
2019-03-23T19:12:27.474Z,37.53
2019-03-23T19:14:55.922Z,36.07
2019-03-23T19:17:24.435Z,39.07
2019-03-23T19:19:52.882Z,38.57
2019-03-23T19:22:21.395Z,39.92
2019-03-23T19:24:49.827Z,41.05
2019-03-23T19:27:18.268Z,38.87
2019-03-23T19:29:46.713Z,36.67
2019-03-23T19:32:15.150Z,36.90
2019-03-23T19:34:43.577Z,38.33
2019-03-23T19:37:12.029Z,39.03
2019-03-23T19:39:40.464Z,40.20
2019-03-23T19:42:08.902Z,38.53
2019-03-23T19:44:37.363Z,44.23
2019-03-23T19:47:05.797Z,39.93
2019-03-23T19:49:34.509Z,34.93
2019-03-23T19:52:02.947Z,35.43
2019-03-23T19:54:31.449Z,41.60
2019-03-23T19:56:59.949Z,45.70
2019-03-23T19:59:28.384Z,48.40
2019-03-23T20:01:57.116Z,53.10
2019-03-23T20:04:25.554Z,52.90
2019-03-23T20:06:53.998Z,50.93
2019-03-23T20:09:22.432Z,50.33
2019-03-23T20:11:50.881Z,53.03
2019-03-23T20:14:19.395Z,52.03
2019-03-23T20:16:47.860Z,52.03
2019-03-23T20:19:16.318Z,55.40
2019-03-23T20:21:44.775Z,51.67
2019-03-23T20:24:13.231Z,59.50
2019-03-23T20:26:41.648Z,57.47
2019-03-23T20:29:10.100Z,66.07
2019-03-23T20:31:38.550Z,65.40
2019-03-23T20:34:07.054Z,65.03
2019-03-23T20:36:39.353Z,69.33
2019-03-23T20:39:08.264Z,69.20
2019-03-23T20:41:36.705Z,72.60
2019-03-23T20:44:09.390Z,69.97
2019-03-23T20:46:35.854Z,70.43
2019-03-23T20:49:04.368Z,77.03
2019-03-23T20:51:32.794Z,73.23
2019-03-23T20:54:01.626Z,75.37
2019-03-23T20:56:30.082Z,77.03
2019-03-23T20:58:58.522Z,69.17
2019-03-23T21:01:26.952Z,70.13
2019-03-23T21:03:55.421Z,81.77
2019-03-23T21:06:23.840Z,83.17
2019-03-23T21:08:52.291Z,79.13
2019-03-23T21:11:20.727Z,83.03
2019-03-23T21:13:49.173Z,87.07
2019-03-23T21:16:18.552Z,82.63
2019-03-23T21:18:47.005Z,78.63
2019-03-23T21:21:15.438Z,75.67
2019-03-23T21:23:43.894Z,81.13
2019-03-23T21:26:12.314Z,82.70
2019-03-23T21:28:40.763Z,86.50
2019-03-23T21:31:12.582Z,91.93
2019-03-23T21:33:41.025Z,86.10
2019-03-23T21:36:09.452Z,85.63
2019-03-23T21:38:37.881Z,96.70
2019-03-23T21:41:06.307Z,93.87
2019-03-23T21:43:34.745Z,93.03
2019-03-23T21:46:04.482Z,94.00
2019-03-23T21:48:32.957Z,91.13
2019-03-23T21:51:01.399Z,103.97
2019-03-23T21:53:29.820Z,92.13
2019-03-23T21:55:58.263Z,92.47
2019-03-23T21:58:26.679Z,97.47
2019-03-23T22:00:55.114Z,102.47
2019-03-23T22:03:23.551Z,94.13
2019-03-23T22:05:52.002Z,97.93
2019-03-23T22:08:20.432Z,96.23
2019-03-23T22:10:48.882Z,101.53
2019-03-23T22:13:17.300Z,105.87
2019-03-23T22:15:45.752Z,107.50
2019-03-23T22:18:14.196Z,103.83
2019-03-23T22:20:42.636Z,102.67
2019-03-23T22:23:11.079Z,101.17
2019-03-23T22:25:39.531Z,101.20
2019-03-23T22:28:07.968Z,103.63
2019-03-23T22:30:36.655Z,104.43
2019-03-23T22:33:05.075Z,100.60
2019-03-23T22:35:33.516Z,98.63
2019-03-23T22:38:01.909Z,94.73
2019-03-23T22:40:30.342Z,94.13
2019-03-23T22:42:58.767Z,103.83
2019-03-23T22:45:27.203Z,102.60
2019-03-23T22:47:55.636Z,104.07
2019-03-23T22:50:24.098Z,104.97
2019-03-23T22:52:52.538Z,97.40
2019-03-23T22:55:20.993Z,106.13
2019-03-23T22:57:49.488Z,100.27
2019-03-23T23:00:21.806Z,101.83
2019-03-23T23:02:50.229Z,113.90
2019-03-23T23:05:18.764Z,108.90
2019-03-23T23:07:47.178Z,112.33
2019-03-23T23:10:15.786Z,115.07
2019-03-23T23:12:44.218Z,104.13
2019-03-23T23:15:12.895Z,112.80
2019-03-23T23:17:41.309Z,110.90
2019-03-23T23:20:09.977Z,112.87
2019-03-23T23:22:40.317Z,103.97
2019-03-23T23:25:09.007Z,110.47
2019-03-23T23:27:37.439Z,111.13
2019-03-23T23:30:08.441Z,103.53
2019-03-23T23:32:37.304Z,112.97
2019-03-23T23:35:08.202Z,116.70
2019-03-23T23:37:36.764Z,104.07
2019-03-23T23:40:07.111Z,106.30
2019-03-23T23:42:35.675Z,106.67
2019-03-23T23:45:15.313Z,110.20
2019-03-23T23:47:38.962Z,112.57
2019-03-23T23:50:08.461Z,109.40
2019-03-23T23:52:36.878Z,112.23
2019-03-23T23:55:06.656Z,111.30
2019-03-23T23:57:35.078Z,108.40
